sensor_id;sensor_type;location;lat;lon;timestamp;P1;durP1;ratioP1;P2;durP2;ratioP2
19436;SDS011;9854;50.968;4.168;2023-01-08T00:02:22;5.57;;;2.28;;
19436;SDS011;9854;50.968;4.168;2023-01-08T00:04:48;2.85;;;1.33;;
19436;SDS011;9854;50.968;4.168;2023-01-08T00:07:14;3.60;;;1.50;;
19436;SDS011;9854;50.968;4.168;2023-01-08T00:09:40;2.55;;;1.23;;
19436;SDS011;9854;50.968;4.168;2023-01-08T00:12:05;3.55;;;1.25;;
19436;SDS011;9854;50.968;4.168;2023-01-08T00:14:31;2.50;;;0.93;;
19436;SDS011;9854;50.968;4.168;2023-01-08T00:16:57;1.70;;;1.02;;
19436;SDS011;9854;50.968;4.168;2023-01-08T00:19:22;3.15;;;1.00;;
19436;SDS011;9854;50.968;4.168;2023-01-08T00:21:48;2.42;;;1.17;;
19436;SDS011;9854;50.968;4.168;2023-01-08T00:24:14;3.67;;;1.10;;
19436;SDS011;9854;50.968;4.168;2023-01-08T00:26:40;5.88;;;1.40;;
19436;SDS011;9854;50.968;4.168;2023-01-08T00:29:05;3.90;;;1.52;;
19436;SDS011;9854;50.968;4.168;2023-01-08T00:31:34;3.63;;;1.05;;
19436;SDS011;9854;50.968;4.168;2023-01-08T00:34:00;3.38;;;1.40;;
19436;SDS011;9854;50.968;4.168;2023-01-08T00:36:25;4.20;;;1.40;;
19436;SDS011;9854;50.968;4.168;2023-01-08T00:38:51;3.63;;;1.30;;
19436;SDS011;9854;50.968;4.168;2023-01-08T00:41:17;4.20;;;1.38;;
19436;SDS011;9854;50.968;4.168;2023-01-08T00:43:43;3.65;;;1.30;;
19436;SDS011;9854;50.968;4.168;2023-01-08T00:46:08;4.03;;;1.42;;
19436;SDS011;9854;50.968;4.168;2023-01-08T00:48:34;4.18;;;1.23;;
19436;SDS011;9854;50.968;4.168;2023-01-08T00:51:03;3.93;;;1.30;;
19436;SDS011;9854;50.968;4.168;2023-01-08T00:53:30;4.77;;;1.50;;
19436;SDS011;9854;50.968;4.168;2023-01-08T00:56:03;2.88;;;1.35;;
19436;SDS011;9854;50.968;4.168;2023-01-08T00:58:30;2.93;;;1.00;;
19436;SDS011;9854;50.968;4.168;2023-01-08T01:00:56;5.20;;;1.08;;
19436;SDS011;9854;50.968;4.168;2023-01-08T01:03:22;3.13;;;1.15;;
19436;SDS011;9854;50.968;4.168;2023-01-08T01:05:48;3.80;;;1.00;;
19436;SDS011;9854;50.968;4.168;2023-01-08T01:08:14;3.13;;;1.20;;
19436;SDS011;9854;50.968;4.168;2023-01-08T01:10:40;5.37;;;1.10;;
19436;SDS011;9854;50.968;4.168;2023-01-08T01:13:05;3.30;;;1.15;;
19436;SDS011;9854;50.968;4.168;2023-01-08T01:15:31;3.75;;;1.42;;
19436;SDS011;9854;50.968;4.168;2023-01-08T01:17:57;2.60;;;1.10;;
19436;SDS011;9854;50.968;4.168;2023-01-08T01:20:22;3.03;;;1.15;;
19436;SDS011;9854;50.968;4.168;2023-01-08T01:22:48;5.97;;;1.48;;
19436;SDS011;9854;50.968;4.168;2023-01-08T01:25:14;4.95;;;1.38;;
19436;SDS011;9854;50.968;4.168;2023-01-08T01:27:40;2.50;;;1.20;;
19436;SDS011;9854;50.968;4.168;2023-01-08T01:30:06;4.25;;;1.35;;
19436;SDS011;9854;50.968;4.168;2023-01-08T01:32:33;5.45;;;1.45;;
19436;SDS011;9854;50.968;4.168;2023-01-08T01:34:59;4.30;;;1.20;;
19436;SDS011;9854;50.968;4.168;2023-01-08T01:37:24;3.92;;;1.10;;
19436;SDS011;9854;50.968;4.168;2023-01-08T01:39:50;3.25;;;1.20;;
19436;SDS011;9854;50.968;4.168;2023-01-08T01:42:16;6.35;;;1.30;;
19436;SDS011;9854;50.968;4.168;2023-01-08T01:45:16;5.47;;;1.23;;
19436;SDS011;9854;50.968;4.168;2023-01-08T01:50:21;5.13;;;1.42;;
19436;SDS011;9854;50.968;4.168;2023-01-08T01:52:53;8.02;;;1.40;;
19436;SDS011;9854;50.968;4.168;2023-01-08T01:55:29;5.72;;;1.77;;
19436;SDS011;9854;50.968;4.168;2023-01-08T01:58:00;5.53;;;1.83;;
19436;SDS011;9854;50.968;4.168;2023-01-08T02:00:40;6.03;;;1.67;;
19436;SDS011;9854;50.968;4.168;2023-01-08T02:03:07;6.00;;;2.00;;
19436;SDS011;9854;50.968;4.168;2023-01-08T02:05:40;5.95;;;2.22;;
19436;SDS011;9854;50.968;4.168;2023-01-08T02:08:10;6.88;;;2.15;;
19436;SDS011;9854;50.968;4.168;2023-01-08T02:13:38;4.55;;;2.13;;
19436;SDS011;9854;50.968;4.168;2023-01-08T02:16:16;4.70;;;2.20;;
19436;SDS011;9854;50.968;4.168;2023-01-08T02:18:47;8.27;;;2.10;;
19436;SDS011;9854;50.968;4.168;2023-01-08T02:21:20;5.22;;;2.20;;
19436;SDS011;9854;50.968;4.168;2023-01-08T02:24:12;5.25;;;2.20;;
19436;SDS011;9854;50.968;4.168;2023-01-08T02:26:48;6.53;;;2.00;;
19436;SDS011;9854;50.968;4.168;2023-01-08T02:29:17;5.65;;;2.15;;
19436;SDS011;9854;50.968;4.168;2023-01-08T02:31:47;5.10;;;2.13;;
19436;SDS011;9854;50.968;4.168;2023-01-08T02:34:14;5.63;;;2.15;;
19436;SDS011;9854;50.968;4.168;2023-01-08T02:36:46;10.63;;;2.75;;
19436;SDS011;9854;50.968;4.168;2023-01-08T02:42:03;4.72;;;2.35;;
19436;SDS011;9854;50.968;4.168;2023-01-08T02:44:57;7.32;;;2.78;;
19436;SDS011;9854;50.968;4.168;2023-01-08T02:47:31;4.68;;;2.35;;
19436;SDS011;9854;50.968;4.168;2023-01-08T02:50:06;3.90;;;2.40;;
19436;SDS011;9854;50.968;4.168;2023-01-08T02:52:39;7.10;;;2.63;;
19436;SDS011;9854;50.968;4.168;2023-01-08T02:55:17;7.03;;;2.40;;
19436;SDS011;9854;50.968;4.168;2023-01-08T02:57:46;6.20;;;2.35;;
19436;SDS011;9854;50.968;4.168;2023-01-08T03:00:13;4.85;;;1.85;;
19436;SDS011;9854;50.968;4.168;2023-01-08T03:02:39;4.47;;;1.80;;
19436;SDS011;9854;50.968;4.168;2023-01-08T03:05:09;2.42;;;1.52;;
19436;SDS011;9854;50.968;4.168;2023-01-08T03:07:41;7.80;;;1.95;;
19436;SDS011;9854;50.968;4.168;2023-01-08T03:10:07;4.47;;;1.73;;
19436;SDS011;9854;50.968;4.168;2023-01-08T03:15:34;3.17;;;1.30;;
19436;SDS011;9854;50.968;4.168;2023-01-08T03:18:06;1.95;;;1.05;;
19436;SDS011;9854;50.968;4.168;2023-01-08T03:20:36;5.43;;;1.33;;
19436;SDS011;9854;50.968;4.168;2023-01-08T03:23:03;6.57;;;1.30;;
19436;SDS011;9854;50.968;4.168;2023-01-08T03:25:32;3.85;;;1.15;;
19436;SDS011;9854;50.968;4.168;2023-01-08T03:28:01;3.42;;;1.48;;
19436;SDS011;9854;50.968;4.168;2023-01-08T03:30:31;2.88;;;1.10;;
19436;SDS011;9854;50.968;4.168;2023-01-08T03:32:58;2.13;;;1.02;;
19436;SDS011;9854;50.968;4.168;2023-01-08T03:35:25;2.63;;;1.10;;
19436;SDS011;9854;50.968;4.168;2023-01-08T03:37:59;3.28;;;1.10;;
19436;SDS011;9854;50.968;4.168;2023-01-08T03:40:33;3.73;;;1.30;;
19436;SDS011;9854;50.968;4.168;2023-01-08T03:43:03;6.68;;;1.58;;
19436;SDS011;9854;50.968;4.168;2023-01-08T03:45:28;4.90;;;1.33;;
19436;SDS011;9854;50.968;4.168;2023-01-08T03:47:55;6.57;;;1.38;;
19436;SDS011;9854;50.968;4.168;2023-01-08T03:50:24;2.77;;;1.60;;
19436;SDS011;9854;50.968;4.168;2023-01-08T03:52:52;3.88;;;1.25;;
19436;SDS011;9854;50.968;4.168;2023-01-08T03:55:18;3.65;;;1.40;;
19436;SDS011;9854;50.968;4.168;2023-01-08T03:57:43;3.80;;;1.47;;
19436;SDS011;9854;50.968;4.168;2023-01-08T04:00:09;5.90;;;1.73;;
19436;SDS011;9854;50.968;4.168;2023-01-08T04:02:35;7.10;;;1.80;;
19436;SDS011;9854;50.968;4.168;2023-01-08T04:05:01;6.15;;;1.50;;
19436;SDS011;9854;50.968;4.168;2023-01-08T04:07:27;8.98;;;1.90;;
19436;SDS011;9854;50.968;4.168;2023-01-08T04:09:52;7.30;;;1.70;;
19436;SDS011;9854;50.968;4.168;2023-01-08T04:12:18;5.70;;;1.67;;
19436;SDS011;9854;50.968;4.168;2023-01-08T04:14:43;4.07;;;1.50;;
19436;SDS011;9854;50.968;4.168;2023-01-08T04:17:12;6.93;;;1.67;;
19436;SDS011;9854;50.968;4.168;2023-01-08T04:19:38;7.83;;;2.07;;
19436;SDS011;9854;50.968;4.168;2023-01-08T04:22:04;7.53;;;1.93;;
19436;SDS011;9854;50.968;4.168;2023-01-08T04:24:29;9.33;;;2.00;;
19436;SDS011;9854;50.968;4.168;2023-01-08T04:26:55;9.63;;;2.00;;
19436;SDS011;9854;50.968;4.168;2023-01-08T04:29:21;7.53;;;2.10;;
19436;SDS011;9854;50.968;4.168;2023-01-08T04:31:46;7.57;;;2.00;;
19436;SDS011;9854;50.968;4.168;2023-01-08T04:34:12;9.77;;;1.90;;
19436;SDS011;9854;50.968;4.168;2023-01-08T04:36:38;11.77;;;2.67;;
19436;SDS011;9854;50.968;4.168;2023-01-08T04:39:04;8.47;;;1.97;;
19436;SDS011;9854;50.968;4.168;2023-01-08T04:41:29;13.00;;;2.30;;
19436;SDS011;9854;50.968;4.168;2023-01-08T04:43:55;12.97;;;2.37;;
19436;SDS011;9854;50.968;4.168;2023-01-08T04:46:20;12.73;;;2.17;;
19436;SDS011;9854;50.968;4.168;2023-01-08T04:48:46;11.50;;;2.40;;
19436;SDS011;9854;50.968;4.168;2023-01-08T04:51:12;12.67;;;2.67;;
19436;SDS011;9854;50.968;4.168;2023-01-08T04:53:37;12.50;;;2.53;;
19436;SDS011;9854;50.968;4.168;2023-01-08T04:56:06;14.73;;;2.67;;
19436;SDS011;9854;50.968;4.168;2023-01-08T04:58:33;13.10;;;2.60;;
19436;SDS011;9854;50.968;4.168;2023-01-08T05:01:00;9.43;;;2.43;;
19436;SDS011;9854;50.968;4.168;2023-01-08T05:03:32;10.23;;;2.37;;
19436;SDS011;9854;50.968;4.168;2023-01-08T05:05:59;10.07;;;2.40;;
19436;SDS011;9854;50.968;4.168;2023-01-08T05:08:24;7.57;;;2.40;;
19436;SDS011;9854;50.968;4.168;2023-01-08T05:10:50;10.90;;;2.50;;
19436;SDS011;9854;50.968;4.168;2023-01-08T05:13:16;11.07;;;2.67;;
19436;SDS011;9854;50.968;4.168;2023-01-08T05:15:41;10.30;;;2.63;;
19436;SDS011;9854;50.968;4.168;2023-01-08T05:18:08;9.90;;;2.40;;
19436;SDS011;9854;50.968;4.168;2023-01-08T05:20:34;7.27;;;1.93;;
19436;SDS011;9854;50.968;4.168;2023-01-08T05:23:00;11.83;;;3.00;;
19436;SDS011;9854;50.968;4.168;2023-01-08T05:25:26;11.77;;;3.20;;
19436;SDS011;9854;50.968;4.168;2023-01-08T05:27:52;6.60;;;2.30;;
19436;SDS011;9854;50.968;4.168;2023-01-08T05:30:18;9.17;;;2.27;;
19436;SDS011;9854;50.968;4.168;2023-01-08T05:32:43;13.70;;;2.73;;
19436;SDS011;9854;50.968;4.168;2023-01-08T05:35:09;13.27;;;2.43;;
19436;SDS011;9854;50.968;4.168;2023-01-08T05:37:36;9.33;;;2.20;;
19436;SDS011;9854;50.968;4.168;2023-01-08T05:40:02;13.70;;;2.40;;
19436;SDS011;9854;50.968;4.168;2023-01-08T05:42:28;14.03;;;2.53;;
19436;SDS011;9854;50.968;4.168;2023-01-08T05:44:54;11.57;;;2.30;;
19436;SDS011;9854;50.968;4.168;2023-01-08T05:47:20;11.90;;;2.57;;
19436;SDS011;9854;50.968;4.168;2023-01-08T05:49:46;9.83;;;2.33;;
19436;SDS011;9854;50.968;4.168;2023-01-08T05:52:11;6.40;;;2.13;;
19436;SDS011;9854;50.968;4.168;2023-01-08T05:54:37;13.07;;;1.97;;
19436;SDS011;9854;50.968;4.168;2023-01-08T05:57:03;10.93;;;2.80;;
19436;SDS011;9854;50.968;4.168;2023-01-08T05:59:28;15.63;;;2.70;;
19436;SDS011;9854;50.968;4.168;2023-01-08T06:01:54;12.87;;;2.53;;
19436;SDS011;9854;50.968;4.168;2023-01-08T06:04:20;18.90;;;2.67;;
19436;SDS011;9854;50.968;4.168;2023-01-08T06:06:45;14.80;;;2.47;;
19436;SDS011;9854;50.968;4.168;2023-01-08T06:09:11;12.53;;;2.27;;
19436;SDS011;9854;50.968;4.168;2023-01-08T06:11:37;8.30;;;2.27;;
19436;SDS011;9854;50.968;4.168;2023-01-08T06:14:03;19.23;;;2.93;;
19436;SDS011;9854;50.968;4.168;2023-01-08T06:16:28;11.70;;;2.40;;
19436;SDS011;9854;50.968;4.168;2023-01-08T06:18:54;12.70;;;2.20;;
19436;SDS011;9854;50.968;4.168;2023-01-08T06:21:20;9.87;;;2.80;;
19436;SDS011;9854;50.968;4.168;2023-01-08T06:23:45;12.53;;;3.07;;
19436;SDS011;9854;50.968;4.168;2023-01-08T06:26:11;12.67;;;2.80;;
19436;SDS011;9854;50.968;4.168;2023-01-08T06:28:36;12.67;;;3.03;;
19436;SDS011;9854;50.968;4.168;2023-01-08T06:31:02;6.50;;;2.00;;
19436;SDS011;9854;50.968;4.168;2023-01-08T06:33:28;14.00;;;2.60;;
19436;SDS011;9854;50.968;4.168;2023-01-08T06:35:58;12.63;;;2.50;;
19436;SDS011;9854;50.968;4.168;2023-01-08T06:38:31;13.50;;;3.40;;
19436;SDS011;9854;50.968;4.168;2023-01-08T06:41:01;11.00;;;2.75;;
19436;SDS011;9854;50.968;4.168;2023-01-08T06:43:32;9.97;;;2.07;;
19436;SDS011;9854;50.968;4.168;2023-01-08T06:45:59;13.17;;;2.33;;
19436;SDS011;9854;50.968;4.168;2023-01-08T06:48:24;11.40;;;2.50;;
19436;SDS011;9854;50.968;4.168;2023-01-08T06:50:51;17.10;;;2.80;;
19436;SDS011;9854;50.968;4.168;2023-01-08T06:53:17;9.83;;;2.30;;
19436;SDS011;9854;50.968;4.168;2023-01-08T06:55:43;13.33;;;3.00;;
19436;SDS011;9854;50.968;4.168;2023-01-08T06:58:09;15.70;;;3.37;;
19436;SDS011;9854;50.968;4.168;2023-01-08T07:00:36;10.33;;;2.70;;
19436;SDS011;9854;50.968;4.168;2023-01-08T07:03:02;13.20;;;2.57;;
19436;SDS011;9854;50.968;4.168;2023-01-08T07:05:28;12.70;;;3.20;;
19436;SDS011;9854;50.968;4.168;2023-01-08T07:07:54;15.20;;;2.83;;
19436;SDS011;9854;50.968;4.168;2023-01-08T07:10:20;15.73;;;3.37;;
19436;SDS011;9854;50.968;4.168;2023-01-08T07:12:46;11.97;;;2.73;;
19436;SDS011;9854;50.968;4.168;2023-01-08T07:15:12;13.17;;;3.60;;
19436;SDS011;9854;50.968;4.168;2023-01-08T07:17:38;14.60;;;2.90;;
19436;SDS011;9854;50.968;4.168;2023-01-08T07:20:04;13.77;;;2.50;;
19436;SDS011;9854;50.968;4.168;2023-01-08T07:22:30;16.47;;;3.13;;
19436;SDS011;9854;50.968;4.168;2023-01-08T07:24:56;14.80;;;2.90;;
19436;SDS011;9854;50.968;4.168;2023-01-08T07:27:21;8.70;;;2.67;;
19436;SDS011;9854;50.968;4.168;2023-01-08T07:29:47;10.00;;;3.03;;
19436;SDS011;9854;50.968;4.168;2023-01-08T07:32:13;16.03;;;3.33;;
19436;SDS011;9854;50.968;4.168;2023-01-08T07:34:38;14.67;;;3.23;;
19436;SDS011;9854;50.968;4.168;2023-01-08T07:37:04;11.07;;;3.07;;
19436;SDS011;9854;50.968;4.168;2023-01-08T07:39:30;12.20;;;2.70;;
19436;SDS011;9854;50.968;4.168;2023-01-08T07:41:56;10.60;;;3.13;;
19436;SDS011;9854;50.968;4.168;2023-01-08T07:44:21;9.83;;;2.33;;
19436;SDS011;9854;50.968;4.168;2023-01-08T07:46:47;10.90;;;2.80;;
19436;SDS011;9854;50.968;4.168;2023-01-08T07:49:13;11.67;;;3.60;;
19436;SDS011;9854;50.968;4.168;2023-01-08T07:51:39;10.33;;;3.00;;
19436;SDS011;9854;50.968;4.168;2023-01-08T07:54:04;11.90;;;3.25;;
19436;SDS011;9854;50.968;4.168;2023-01-08T07:56:30;13.53;;;3.60;;
19436;SDS011;9854;50.968;4.168;2023-01-08T07:58:56;13.03;;;3.33;;
19436;SDS011;9854;50.968;4.168;2023-01-08T08:01:22;8.50;;;3.07;;
19436;SDS011;9854;50.968;4.168;2023-01-08T08:03:49;11.65;;;3.35;;
19436;SDS011;9854;50.968;4.168;2023-01-08T08:06:15;9.17;;;2.87;;
19436;SDS011;9854;50.968;4.168;2023-01-08T08:08:41;13.70;;;3.53;;
19436;SDS011;9854;50.968;4.168;2023-01-08T08:11:06;14.67;;;3.30;;
19436;SDS011;9854;50.968;4.168;2023-01-08T08:13:32;13.67;;;3.30;;
19436;SDS011;9854;50.968;4.168;2023-01-08T08:16:01;18.57;;;3.73;;
19436;SDS011;9854;50.968;4.168;2023-01-08T08:18:28;9.97;;;3.13;;
19436;SDS011;9854;50.968;4.168;2023-01-08T08:20:54;14.50;;;3.33;;
19436;SDS011;9854;50.968;4.168;2023-01-08T08:23:19;11.37;;;3.20;;
19436;SDS011;9854;50.968;4.168;2023-01-08T08:25:45;12.13;;;2.93;;
19436;SDS011;9854;50.968;4.168;2023-01-08T08:28:11;9.40;;;3.00;;
19436;SDS011;9854;50.968;4.168;2023-01-08T08:30:37;14.07;;;3.30;;
19436;SDS011;9854;50.968;4.168;2023-01-08T08:33:04;12.93;;;3.10;;
19436;SDS011;9854;50.968;4.168;2023-01-08T08:35:31;12.57;;;3.30;;
19436;SDS011;9854;50.968;4.168;2023-01-08T08:37:58;16.50;;;2.70;;
19436;SDS011;9854;50.968;4.168;2023-01-08T08:40:26;7.77;;;2.63;;
19436;SDS011;9854;50.968;4.168;2023-01-08T08:42:56;13.40;;;2.67;;
19436;SDS011;9854;50.968;4.168;2023-01-08T08:45:23;11.00;;;3.10;;
19436;SDS011;9854;50.968;4.168;2023-01-08T08:47:49;7.47;;;2.37;;
19436;SDS011;9854;50.968;4.168;2023-01-08T08:50:15;10.17;;;2.90;;
19436;SDS011;9854;50.968;4.168;2023-01-08T08:52:41;11.83;;;3.07;;
19436;SDS011;9854;50.968;4.168;2023-01-08T08:55:08;11.43;;;3.07;;
19436;SDS011;9854;50.968;4.168;2023-01-08T08:57:39;7.67;;;2.90;;
19436;SDS011;9854;50.968;4.168;2023-01-08T09:00:04;11.73;;;2.70;;
19436;SDS011;9854;50.968;4.168;2023-01-08T09:02:31;9.17;;;2.93;;
19436;SDS011;9854;50.968;4.168;2023-01-08T09:04:56;9.17;;;3.07;;
19436;SDS011;9854;50.968;4.168;2023-01-08T09:07:22;9.53;;;2.63;;
19436;SDS011;9854;50.968;4.168;2023-01-08T09:09:48;9.20;;;2.50;;
19436;SDS011;9854;50.968;4.168;2023-01-08T09:12:13;9.13;;;3.10;;
19436;SDS011;9854;50.968;4.168;2023-01-08T09:14:39;13.93;;;2.60;;
19436;SDS011;9854;50.968;4.168;2023-01-08T09:17:05;6.67;;;2.27;;
19436;SDS011;9854;50.968;4.168;2023-01-08T09:19:30;6.07;;;1.90;;
19436;SDS011;9854;50.968;4.168;2023-01-08T09:21:56;7.00;;;1.87;;
19436;SDS011;9854;50.968;4.168;2023-01-08T09:24:22;5.60;;;2.10;;
19436;SDS011;9854;50.968;4.168;2023-01-08T09:26:47;5.77;;;2.00;;
19436;SDS011;9854;50.968;4.168;2023-01-08T09:29:13;3.23;;;1.60;;
19436;SDS011;9854;50.968;4.168;2023-01-08T09:31:39;4.17;;;1.60;;
19436;SDS011;9854;50.968;4.168;2023-01-08T09:34:05;5.60;;;1.98;;
19436;SDS011;9854;50.968;4.168;2023-01-08T09:36:30;5.67;;;2.00;;
19436;SDS011;9854;50.968;4.168;2023-01-08T09:38:56;7.93;;;1.73;;
19436;SDS011;9854;50.968;4.168;2023-01-08T09:41:23;2.83;;;1.13;;
19436;SDS011;9854;50.968;4.168;2023-01-08T09:43:59;4.80;;;1.57;;
19436;SDS011;9854;50.968;4.168;2023-01-08T09:46:27;2.40;;;1.30;;
19436;SDS011;9854;50.968;4.168;2023-01-08T09:48:54;2.13;;;1.00;;
19436;SDS011;9854;50.968;4.168;2023-01-08T09:51:35;4.27;;;1.33;;
19436;SDS011;9854;50.968;4.168;2023-01-08T09:54:02;2.53;;;1.20;;
19436;SDS011;9854;50.968;4.168;2023-01-08T09:56:30;2.83;;;1.30;;
19436;SDS011;9854;50.968;4.168;2023-01-08T09:58:58;2.97;;;1.30;;
19436;SDS011;9854;50.968;4.168;2023-01-08T10:01:27;5.90;;;1.60;;
19436;SDS011;9854;50.968;4.168;2023-01-08T10:04:02;3.10;;;1.23;;
19436;SDS011;9854;50.968;4.168;2023-01-08T10:06:48;2.40;;;1.10;;
19436;SDS011;9854;50.968;4.168;2023-01-08T10:09:14;2.70;;;1.10;;
19436;SDS011;9854;50.968;4.168;2023-01-08T10:11:46;3.92;;;1.10;;
19436;SDS011;9854;50.968;4.168;2023-01-08T10:16:45;3.90;;;1.35;;
19436;SDS011;9854;50.968;4.168;2023-01-08T10:19:13;2.25;;;1.10;;
19436;SDS011;9854;50.968;4.168;2023-01-08T10:21:39;5.90;;;1.30;;
19436;SDS011;9854;50.968;4.168;2023-01-08T10:24:06;1.83;;;1.00;;
19436;SDS011;9854;50.968;4.168;2023-01-08T10:26:33;3.78;;;1.08;;
19436;SDS011;9854;50.968;4.168;2023-01-08T10:29:04;4.22;;;1.27;;
19436;SDS011;9854;50.968;4.168;2023-01-08T10:31:31;5.57;;;1.27;;
19436;SDS011;9854;50.968;4.168;2023-01-08T10:34:05;4.22;;;1.10;;
19436;SDS011;9854;50.968;4.168;2023-01-08T10:36:37;5.32;;;1.42;;
19436;SDS011;9854;50.968;4.168;2023-01-08T10:39:04;5.45;;;1.35;;
19436;SDS011;9854;50.968;4.168;2023-01-08T10:41:30;4.53;;;1.50;;
19436;SDS011;9854;50.968;4.168;2023-01-08T10:44:04;5.57;;;1.20;;
19436;SDS011;9854;50.968;4.168;2023-01-08T10:49:01;5.65;;;1.40;;
19436;SDS011;9854;50.968;4.168;2023-01-08T10:51:29;6.65;;;1.52;;
19436;SDS011;9854;50.968;4.168;2023-01-08T10:54:00;5.45;;;1.40;;
19436;SDS011;9854;50.968;4.168;2023-01-08T10:56:40;5.30;;;1.70;;
19436;SDS011;9854;50.968;4.168;2023-01-08T10:59:21;3.92;;;1.58;;
19436;SDS011;9854;50.968;4.168;2023-01-08T11:01:51;4.13;;;1.30;;
19436;SDS011;9854;50.968;4.168;2023-01-08T11:04:32;5.35;;;1.58;;
19436;SDS011;9854;50.968;4.168;2023-01-08T11:07:00;4.95;;;1.50;;
19436;SDS011;9854;50.968;4.168;2023-01-08T11:09:34;5.30;;;1.42;;
19436;SDS011;9854;50.968;4.168;2023-01-08T11:14:57;5.00;;;1.50;;
19436;SDS011;9854;50.968;4.168;2023-01-08T11:17:24;6.10;;;1.67;;
19436;SDS011;9854;50.968;4.168;2023-01-08T11:19:51;5.07;;;1.73;;
19436;SDS011;9854;50.968;4.168;2023-01-08T11:22:21;4.57;;;1.30;;
19436;SDS011;9854;50.968;4.168;2023-01-08T11:24:48;10.30;;;1.90;;
19436;SDS011;9854;50.968;4.168;2023-01-08T11:27:22;4.75;;;1.67;;
19436;SDS011;9854;50.968;4.168;2023-01-08T11:32:24;5.60;;;1.93;;
19436;SDS011;9854;50.968;4.168;2023-01-08T11:37:49;4.53;;;1.55;;
19436;SDS011;9854;50.968;4.168;2023-01-08T11:48:04;6.70;;;1.60;;
19436;SDS011;9854;50.968;4.168;2023-01-08T11:50:40;3.60;;;1.55;;
19436;SDS011;9854;50.968;4.168;2023-01-08T11:56:21;5.45;;;1.77;;
19436;SDS011;9854;50.968;4.168;2023-01-08T12:07:41;10.50;;;1.98;;
19436;SDS011;9854;50.968;4.168;2023-01-08T12:10:23;4.63;;;1.70;;
19436;SDS011;9854;50.968;4.168;2023-01-08T12:15:53;4.53;;;1.70;;
19436;SDS011;9854;50.968;4.168;2023-01-08T12:21:12;6.68;;;1.40;;
19436;SDS011;9854;50.968;4.168;2023-01-08T12:26:43;5.45;;;1.70;;
19436;SDS011;9854;50.968;4.168;2023-01-08T12:37:10;8.18;;;1.83;;
19436;SDS011;9854;50.968;4.168;2023-01-08T12:39:54;4.57;;;1.48;;
19436;SDS011;9854;50.968;4.168;2023-01-08T12:42:31;5.60;;;1.85;;
19436;SDS011;9854;50.968;4.168;2023-01-08T12:45:00;11.90;;;2.22;;
19436;SDS011;9854;50.968;4.168;2023-01-08T12:47:29;10.68;;;2.00;;
19436;SDS011;9854;50.968;4.168;2023-01-08T12:50:00;6.63;;;1.88;;
19436;SDS011;9854;50.968;4.168;2023-01-08T12:52:44;4.43;;;1.77;;
19436;SDS011;9854;50.968;4.168;2023-01-08T13:01:58;6.90;;;1.77;;
19436;SDS011;9854;50.968;4.168;2023-01-08T13:03:57;3.72;;;1.70;;
19436;SDS011;9854;50.968;4.168;2023-01-08T13:06:24;9.65;;;2.22;;
19436;SDS011;9854;50.968;4.168;2023-01-08T13:08:51;7.43;;;1.73;;
19436;SDS011;9854;50.968;4.168;2023-01-08T13:11:28;4.00;;;1.60;;
19436;SDS011;9854;50.968;4.168;2023-01-08T13:14:06;6.80;;;1.75;;
19436;SDS011;9854;50.968;4.168;2023-01-08T13:16:38;5.15;;;1.52;;
19436;SDS011;9854;50.968;4.168;2023-01-08T13:19:06;6.15;;;1.50;;
19436;SDS011;9854;50.968;4.168;2023-01-08T13:21:51;6.15;;;1.70;;
19436;SDS011;9854;50.968;4.168;2023-01-08T13:27:08;6.88;;;1.60;;
19436;SDS011;9854;50.968;4.168;2023-01-08T13:32:02;5.30;;;1.85;;
19436;SDS011;9854;50.968;4.168;2023-01-08T13:34:38;5.63;;;1.50;;
19436;SDS011;9854;50.968;4.168;2023-01-08T13:37:06;9.02;;;2.05;;
19436;SDS011;9854;50.968;4.168;2023-01-08T13:39:34;6.60;;;2.03;;
19436;SDS011;9854;50.968;4.168;2023-01-08T13:42:11;9.65;;;2.25;;
19436;SDS011;9854;50.968;4.168;2023-01-08T13:44:46;6.55;;;1.75;;
19436;SDS011;9854;50.968;4.168;2023-01-08T13:47:24;7.32;;;2.22;;
19436;SDS011;9854;50.968;4.168;2023-01-08T13:50:00;7.43;;;1.90;;
19436;SDS011;9854;50.968;4.168;2023-01-08T13:52:30;7.32;;;1.95;;
19436;SDS011;9854;50.968;4.168;2023-01-08T13:54:56;5.85;;;1.95;;
19436;SDS011;9854;50.968;4.168;2023-01-08T13:57:24;5.90;;;1.92;;
19436;SDS011;9854;50.968;4.168;2023-01-08T13:59:53;7.15;;;1.83;;
19436;SDS011;9854;50.968;4.168;2023-01-08T14:04:49;6.38;;;1.90;;
19436;SDS011;9854;50.968;4.168;2023-01-08T14:07:15;9.07;;;1.80;;
19436;SDS011;9854;50.968;4.168;2023-01-08T14:09:41;10.25;;;1.75;;
19436;SDS011;9854;50.968;4.168;2023-01-08T14:12:11;5.97;;;1.77;;
19436;SDS011;9854;50.968;4.168;2023-01-08T14:14:41;9.45;;;1.80;;
19436;SDS011;9854;50.968;4.168;2023-01-08T14:17:14;7.72;;;1.80;;
19436;SDS011;9854;50.968;4.168;2023-01-08T14:19:41;4.90;;;1.60;;
19436;SDS011;9854;50.968;4.168;2023-01-08T14:22:10;5.90;;;1.58;;
19436;SDS011;9854;50.968;4.168;2023-01-08T14:24:43;6.13;;;1.60;;
19436;SDS011;9854;50.968;4.168;2023-01-08T14:30:14;6.88;;;2.00;;
19436;SDS011;9854;50.968;4.168;2023-01-08T14:32:42;6.85;;;1.98;;
19436;SDS011;9854;50.968;4.168;2023-01-08T14:35:13;5.20;;;1.80;;
19436;SDS011;9854;50.968;4.168;2023-01-08T14:37:40;7.78;;;2.50;;
19436;SDS011;9854;50.968;4.168;2023-01-08T14:40:12;9.63;;;2.42;;
19436;SDS011;9854;50.968;4.168;2023-01-08T14:42:40;8.73;;;2.22;;
19436;SDS011;9854;50.968;4.168;2023-01-08T14:45:26;7.80;;;1.60;;
19436;SDS011;9854;50.968;4.168;2023-01-08T14:47:55;5.97;;;1.67;;
19436;SDS011;9854;50.968;4.168;2023-01-08T14:50:28;7.95;;;1.80;;
19436;SDS011;9854;50.968;4.168;2023-01-08T14:52:58;6.28;;;1.98;;
19436;SDS011;9854;50.968;4.168;2023-01-08T14:55:43;7.53;;;1.88;;
19436;SDS011;9854;50.968;4.168;2023-01-08T14:58:13;3.97;;;1.40;;
19436;SDS011;9854;50.968;4.168;2023-01-08T15:00:40;6.60;;;1.65;;
19436;SDS011;9854;50.968;4.168;2023-01-08T15:03:21;7.85;;;1.90;;
19436;SDS011;9854;50.968;4.168;2023-01-08T15:05:52;8.05;;;1.63;;
19436;SDS011;9854;50.968;4.168;2023-01-08T15:08:24;4.93;;;1.90;;
19436;SDS011;9854;50.968;4.168;2023-01-08T15:13:44;10.43;;;1.98;;
19436;SDS011;9854;50.968;4.168;2023-01-08T15:16:56;5.35;;;1.95;;
19436;SDS011;9854;50.968;4.168;2023-01-08T15:19:00;4.68;;;1.90;;
19436;SDS011;9854;50.968;4.168;2023-01-08T15:21:29;9.02;;;2.30;;
19436;SDS011;9854;50.968;4.168;2023-01-08T15:23:55;8.07;;;2.20;;
19436;SDS011;9854;50.968;4.168;2023-01-08T15:26:22;6.90;;;1.98;;
19436;SDS011;9854;50.968;4.168;2023-01-08T15:28:58;7.63;;;2.22;;
19436;SDS011;9854;50.968;4.168;2023-01-08T15:31:32;9.85;;;2.05;;
19436;SDS011;9854;50.968;4.168;2023-01-08T15:34:10;11.02;;;2.10;;
19436;SDS011;9854;50.968;4.168;2023-01-08T15:36:35;10.20;;;2.17;;
19436;SDS011;9854;50.968;4.168;2023-01-08T15:39:02;12.20;;;2.25;;
19436;SDS011;9854;50.968;4.168;2023-01-08T15:41:35;10.85;;;4.03;;
19436;SDS011;9854;50.968;4.168;2023-01-08T15:44:24;7.97;;;2.55;;
19436;SDS011;9854;50.968;4.168;2023-01-08T15:46:50;17.15;;;3.53;;
19436;SDS011;9854;50.968;4.168;2023-01-08T15:49:16;13.65;;;3.90;;
19436;SDS011;9854;50.968;4.168;2023-01-08T15:51:44;11.73;;;3.35;;
19436;SDS011;9854;50.968;4.168;2023-01-08T15:54:12;11.45;;;2.92;;
19436;SDS011;9854;50.968;4.168;2023-01-08T15:56:39;7.05;;;2.40;;
19436;SDS011;9854;50.968;4.168;2023-01-08T15:59:05;13.82;;;6.25;;
19436;SDS011;9854;50.968;4.168;2023-01-08T16:01:31;9.20;;;1.92;;
19436;SDS011;9854;50.968;4.168;2023-01-08T16:03:57;9.40;;;3.42;;
19436;SDS011;9854;50.968;4.168;2023-01-08T16:06:23;10.48;;;2.70;;
19436;SDS011;9854;50.968;4.168;2023-01-08T16:08:49;10.02;;;3.10;;
19436;SDS011;9854;50.968;4.168;2023-01-08T16:11:15;5.90;;;2.20;;
19436;SDS011;9854;50.968;4.168;2023-01-08T16:13:42;6.97;;;2.20;;
19436;SDS011;9854;50.968;4.168;2023-01-08T16:16:08;12.07;;;2.97;;
19436;SDS011;9854;50.968;4.168;2023-01-08T16:18:39;9.63;;;2.53;;
19436;SDS011;9854;50.968;4.168;2023-01-08T16:21:05;8.68;;;2.42;;
19436;SDS011;9854;50.968;4.168;2023-01-08T16:23:33;12.02;;;2.38;;
19436;SDS011;9854;50.968;4.168;2023-01-08T16:26:04;9.48;;;2.33;;
19436;SDS011;9854;50.968;4.168;2023-01-08T16:28:30;7.65;;;2.45;;